Russell Island, Michigan
Current Conditions -  °F | °C
As of 1:58 AM on Sunday 26 Oct 2014 (Local Time) from KMTC Reporting Station
Clear Clear  
Wind Chill: 52°   Ceiling: Unl
Heat Index: 52°   Visibility: 10mi
Dew Point: 31°   Wind: 10mph
Humidity: 46%   Direction: 300°WNW
Pressure: 29.79"   Gusts: NA
Location:  42.6418°N, 82.5677°W
Report Text: KMTC 260558Z AUTO 30009KT 10SM CLR 11/00 A2979 RMK AO2 SLP091 T01091004 10158 20109 52011
Loading
Personal Weather Stations






























Interactive Weather Map
Tropical Storm Tracking
New forecast layout! Learn more

10-Day Weather Forecast

Advertisements
Track Severe Weather on mobile